Time;durP1;ratioP1;P1;durP2;ratioP2;P2;SDS_P1;SDS_P2;PMS_P1;PMS_P2;Temp;Humidity;BMP_temperature;BMP_pressure;BME280_temperature;BME280_humidity;BME280_pressure;Samples;Min_cycle;Max_cycle;Signal;HPM_P1;HPM_P2
2023/01/02 00:01:14;;;;;;;9.45;3.83;;;13.60;83.30;;;;;;5051099;28;20036;-70
2023/01/02 00:03:40;;;;;;;11.07;4.70;;;13.50;83.20;;;;;;5025961;28;20037;-70
2023/01/02 00:06:05;;;;;;;11.60;4.30;;;13.60;83.30;;;;;;5049264;28;20462;-71
2023/01/02 00:08:31;;;;;;;9.45;4.32;;;13.60;83.30;;;;;;5039213;28;20029;-70
2023/01/02 00:10:57;;;;;;;9.05;3.97;;;13.60;83.30;;;;;;5063699;28;20033;-70
2023/01/02 00:13:23;;;;;;;12.27;4.78;;;13.60;83.30;;;;;;5043045;28;20109;-70
2023/01/02 00:15:48;;;;;;;8.93;3.92;;;13.60;83.30;;;;;;5044244;28;20480;-70
2023/01/02 00:18:14;;;;;;;8.57;4.43;;;13.60;83.30;;;;;;5043035;28;20022;-70
2023/01/02 00:20:40;;;;;;;12.23;4.15;;;13.60;83.30;;;;;;5033748;28;20025;-69
2023/01/02 00:23:06;;;;;;;8.70;4.10;;;13.60;83.20;;;;;;5033221;28;20112;-69
2023/01/02 00:25:36;;;;;;;10.00;4.43;;;13.60;83.20;;;;;;5040914;28;20032;-70
2023/01/02 00:28:02;;;;;;;9.40;3.95;;;13.60;83.20;;;;;;5033816;28;20360;-70
2023/01/02 00:30:28;;;;;;;12.77;4.55;;;13.70;83.20;;;;;;5038455;28;20033;-70
2023/01/02 00:32:54;;;;;;;8.73;4.10;;;13.70;83.20;;;;;;5049515;28;20033;-70
2023/01/02 00:35:19;;;;;;;10.32;3.58;;;13.70;83.20;;;;;;5040147;28;20043;-70
2023/01/02 00:37:45;;;;;;;10.90;3.90;;;13.70;83.20;;;;;;5025842;28;20025;-70
2023/01/02 00:40:12;;;;;;;10.45;4.28;;;13.70;83.10;;;;;;5036313;28;20037;-70
2023/01/02 00:42:42;;;;;;;8.80;4.28;;;13.70;83.10;;;;;;5041387;28;20029;-70
2023/01/02 00:45:09;;;;;;;9.18;4.43;;;13.70;83.10;;;;;;5037537;28;20080;-70
2023/01/02 00:47:35;;;;;;;12.45;4.13;;;13.70;83.00;;;;;;5045042;28;20036;-70
2023/01/02 00:50:00;;;;;;;9.20;3.88;;;13.80;83.00;;;;;;5034201;28;20029;-70
2023/01/02 00:52:26;;;;;;;8.30;4.00;;;13.80;83.00;;;;;;5052888;28;20102;-70
2023/01/02 00:54:52;;;;;;;11.25;4.00;;;13.80;83.00;;;;;;5045333;28;20091;-70
2023/01/02 00:57:17;;;;;;;8.75;3.78;;;13.80;83.60;;;;;;5047001;28;20107;-70
2023/01/02 00:59:44;;;;;;;11.95;4.18;;;13.80;83.00;;;;;;5038706;28;20022;-70
2023/01/02 01:02:10;;;;;;;11.75;3.97;;;13.80;83.00;;;;;;5044070;28;20060;-70
2023/01/02 01:04:36;;;;;;;9.93;4.50;;;13.80;83.00;;;;;;5046942;28;20037;-70
2023/01/02 01:07:02;;;;;;;8.57;3.85;;;13.80;83.00;;;;;;5042314;28;20048;-70
2023/01/02 01:09:28;;;;;;;9.48;3.72;;;13.80;82.90;;;;;;5055505;28;20039;-70
2023/01/02 01:11:53;;;;;;;9.27;4.03;;;13.80;82.90;;;;;;5044082;28;20472;-70
2023/01/02 01:14:19;;;;;;;10.43;4.10;;;13.90;83.00;;;;;;5057677;28;20024;-70
2023/01/02 01:16:45;;;;;;;9.77;4.15;;;13.80;82.90;;;;;;5045201;28;20021;-70
2023/01/02 01:19:13;;;;;;;8.45;3.70;;;13.80;82.90;;;;;;5057288;28;20025;-70
2023/01/02 01:21:38;;;;;;;10.60;4.05;;;13.80;82.90;;;;;;5043642;28;20021;-70
2023/01/02 01:24:04;;;;;;;9.63;3.92;;;13.80;82.90;;;;;;5032165;28;20032;-70
2023/01/02 01:26:30;;;;;;;9.77;4.15;;;13.80;82.90;;;;;;5048930;28;20489;-71
2023/01/02 01:28:56;;;;;;;10.75;3.92;;;13.80;82.90;;;;;;5056652;28;20028;-70
2023/01/02 01:31:23;;;;;;;8.38;4.25;;;13.80;83.00;;;;;;5028339;28;20112;-70
2023/01/02 01:33:49;;;;;;;10.10;4.22;;;13.80;82.90;;;;;;5089522;28;20091;-70
2023/01/02 01:36:20;;;;;;;7.90;3.97;;;13.80;83.00;;;;;;5046156;28;20435;-70
2023/01/02 01:38:46;;;;;;;9.23;3.92;;;13.80;82.90;;;;;;5056094;28;20103;-70
2023/01/02 01:41:14;;;;;;;10.40;4.30;;;13.80;82.90;;;;;;5039636;28;20313;-70
2023/01/02 01:43:42;;;;;;;10.32;4.43;;;13.90;83.00;;;;;;5045148;28;20108;-70
2023/01/02 01:46:31;;;;;;;10.60;4.30;;;13.80;82.80;;;;;;5042707;28;20025;-70
2023/01/02 01:49:03;;;;;;;9.18;4.20;;;13.90;82.80;;;;;;5049405;28;20040;-70
2023/01/02 01:51:31;;;;;;;10.30;4.13;;;13.90;82.80;;;;;;5036702;28;20038;-70
2023/01/02 01:54:05;;;;;;;11.55;3.90;;;13.90;82.80;;;;;;5053575;28;20030;-70
2023/01/02 01:56:36;;;;;;;9.52;3.88;;;13.90;82.80;;;;;;5048796;28;20021;-70
2023/01/02 01:59:02;;;;;;;10.48;4.55;;;13.90;82.80;;;;;;5050737;28;20025;-70
2023/01/02 02:01:28;;;;;;;8.55;3.85;;;13.90;82.70;;;;;;5052196;28;20068;-70
2023/01/02 02:03:54;;;;;;;9.25;4.30;;;13.90;82.70;;;;;;5052418;28;20509;-70
2023/01/02 02:06:20;;;;;;;8.75;3.92;;;13.90;82.70;;;;;;5041616;28;20029;-70
2023/01/02 02:09:16;;;;;;;8.80;3.58;;;13.90;82.70;;;;;;5047271;28;20029;-70
2023/01/02 02:11:43;;;;;;;8.38;3.90;;;14.00;82.80;;;;;;5044462;28;20049;-70
2023/01/02 02:14:09;;;;;;;8.93;3.60;;;14.00;82.80;;;;;;5048032;28;20029;-70
2023/01/02 02:16:46;;;;;;;8.40;3.72;;;13.90;82.90;;;;;;5044101;28;20075;-71
2023/01/02 02:19:35;;;;;;;7.47;3.53;;;13.90;82.90;;;;;;5055736;28;20029;-71
2023/01/02 02:22:38;;;;;;;8.07;3.88;;;13.90;83.00;;;;;;5035379;28;20040;-71
2023/01/02 02:25:29;;;;;;;8.65;3.40;;;13.90;83.00;;;;;;5065792;28;20474;-70
2023/01/02 02:28:01;;;;;;;9.57;4.23;;;13.90;83.00;;;;;;5035708;28;20046;-71
2023/01/02 02:30:33;;;;;;;;;;;13.90;83.10;;;;;;5042684;28;20033;-70
2023/01/02 02:33:30;;;;;;;7.47;2.92;;;13.90;83.00;;;;;;5045416;28;19920;-70
2023/01/02 02:36:13;;;;;;;7.68;3.00;;;13.90;83.10;;;;;;5047076;28;20048;-71
2023/01/02 02:38:53;;;;;;;9.07;3.38;;;13.90;83.20;;;;;;5045995;28;20124;-70
2023/01/02 02:41:31;;;;;;;10.43;3.85;;;13.90;83.40;;;;;;5043372;28;20029;-70
2023/01/02 02:44:03;;;;;;;7.20;3.25;;;13.90;83.50;;;;;;5047662;28;20087;-70
2023/01/02 02:47:03;;;;;;;7.22;3.33;;;13.90;83.50;;;;;;5045722;28;20047;-71
2023/01/02 02:49:43;;;;;;;8.00;3.05;;;13.90;83.60;;;;;;5051417;28;20425;-70
2023/01/02 02:52:19;;;;;;;8.60;3.38;;;13.90;83.70;;;;;;5054401;28;20029;-70
2023/01/02 02:55:04;;;;;;;8.90;3.28;;;13.90;83.80;;;;;;5042661;28;20028;-70
2023/01/02 02:57:31;;;;;;;9.45;3.78;;;13.90;83.80;;;;;;5048332;28;20033;-70
2023/01/02 02:59:57;;;;;;;9.65;3.08;;;13.90;83.90;;;;;;5042657;28;20082;-70
2023/01/02 03:02:23;;;;;;;9.93;3.97;;;13.90;84.00;;;;;;5054490;28;20021;-70
2023/01/02 03:05:01;;;;;;;9.52;3.80;;;13.90;84.10;;;;;;5039953;28;20354;-69
2023/01/02 03:07:59;;;;;;;9.70;3.60;;;13.90;84.10;;;;;;5050803;28;20037;-70
2023/01/02 03:10:25;;;;;;;11.20;4.10;;;13.90;84.10;;;;;;5043930;28;20440;-70
2023/01/02 03:13:21;;;;;;;10.07;3.60;;;13.90;84.10;;;;;;5035493;28;20156;-70
2023/01/02 03:16:06;;;;;;;8.18;3.58;;;14.00;84.20;;;;;;5018536;28;20456;-70
2023/01/02 03:18:55;;;;;;;10.32;3.42;;;13.90;84.20;;;;;;5035474;28;20033;-70
2023/01/02 03:21:31;;;;;;;10.02;3.25;;;13.90;84.20;;;;;;5030857;28;20025;-71
2023/01/02 03:24:01;;;;;;;8.45;3.05;;;13.90;84.30;;;;;;5035016;28;20117;-70
2023/01/02 03:26:30;;;;;;;8.38;3.05;;;13.90;84.40;;;;;;5066960;28;20414;-70
2023/01/02 03:29:07;;;;;;;10.50;4.03;;;14.00;84.50;;;;;;5036004;28;20083;-70
2023/01/02 03:31:38;;;;;;;9.20;3.60;;;14.00;84.60;;;;;;5034797;28;20044;-70
2023/01/02 03:34:12;;;;;;;7.80;3.60;;;13.90;84.50;;;;;;5035407;28;20026;-70
2023/01/02 03:36:40;;;;;;;10.95;3.88;;;14.00;84.60;;;;;;5034347;28;20047;-70
2023/01/02 03:39:15;;;;;;;9.40;3.55;;;14.00;84.60;;;;;;5034564;28;20042;-70
2023/01/02 03:42:03;;;;;;;9.05;3.00;;;14.00;84.70;;;;;;5050476;28;20103;-70
2023/01/02 03:44:39;;;;;;;10.00;3.33;;;14.00;84.60;;;;;;5036757;28;20421;-70
2023/01/02 03:47:16;;;;;;;9.13;2.95;;;14.00;84.60;;;;;;5033271;28;20087;-70
2023/01/02 03:49:46;;;;;;;11.23;3.67;;;14.00;84.60;;;;;;5034979;28;20446;-70
2023/01/02 03:52:12;;;;;;;9.40;3.00;;;14.00;84.60;;;;;;5047199;28;20030;-70
2023/01/02 03:54:38;;;;;;;9.98;3.15;;;14.00;84.60;;;;;;5026723;28;20025;-70
2023/01/02 03:57:13;;;;;;;10.00;3.40;;;14.00;84.60;;;;;;5047722;28;20052;-70
2023/01/02 03:59:48;;;;;;;8.00;3.20;;;14.00;84.70;;;;;;5049641;28;20350;-70
2023/01/02 04:02:36;;;;;;;8.15;2.92;;;14.10;84.70;;;;;;5050518;28;20116;-70
2023/01/02 04:05:20;;;;;;;8.48;3.40;;;14.10;84.60;;;;;;5035490;28;20120;-71
2023/01/02 04:08:00;;;;;;;7.32;3.55;;;14.10;84.60;;;;;;5054486;28;20048;-70
2023/01/02 04:10:28;;;;;;;8.82;3.50;;;14.10;84.60;;;;;;5018929;28;20029;-70
2023/01/02 04:12:59;;;;;;;9.15;3.45;;;14.10;84.60;;;;;;5032081;28;20049;-70
2023/01/02 04:15:28;;;;;;;8.88;3.20;;;14.10;84.70;;;;;;5035000;28;20109;-70
2023/01/02 04:18:06;;;;;;;8.15;3.20;;;14.10;84.70;;;;;;5033911;28;20109;-70
2023/01/02 04:20:36;;;;;;;9.35;3.55;;;14.10;84.70;;;;;;5034068;28;20439;-70
2023/01/02 04:23:09;;;;;;;9.57;3.20;;;14.10;84.70;;;;;;5034525;28;20446;-70
2023/01/02 04:25:46;;;;;;;13.93;3.95;;;14.10;84.80;;;;;;5033389;28;20036;-71
2023/01/02 04:28:22;;;;;;;7.15;3.13;;;14.10;84.80;;;;;;5024653;28;20045;-70
2023/01/02 04:30:54;;;;;;;8.00;3.33;;;14.10;84.80;;;;;;5033409;28;20029;-70
2023/01/02 04:33:23;;;;;;;11.55;3.30;;;14.10;84.90;;;;;;5030642;28;20427;-70
2023/01/02 04:35:50;;;;;;;8.68;3.50;;;14.00;84.90;;;;;;5027324;28;20497;-70
2023/01/02 04:38:17;;;;;;;8.43;3.40;;;14.00;84.90;;;;;;5030154;28;20057;-70
2023/01/02 04:40:43;;;;;;;9.55;3.08;;;14.00;84.90;;;;;;5057298;28;20340;-70
2023/01/02 04:43:20;;;;;;;7.05;3.28;;;14.10;85.00;;;;;;5033837;28;20112;-70
2023/01/02 04:45:47;;;;;;;9.00;3.30;;;14.00;85.00;;;;;;5034485;28;20026;-70
2023/01/02 04:48:14;;;;;;;7.60;2.80;;;14.10;85.00;;;;;;5042141;28;20034;-70
2023/01/02 04:50:40;;;;;;;8.02;3.03;;;14.00;85.00;;;;;;5046539;28;20107;-70
2023/01/02 04:53:05;;;;;;;10.57;3.53;;;14.10;85.10;;;;;;5050583;28;20059;-70
2023/01/02 04:55:31;;;;;;;6.38;3.28;;;14.00;85.10;;;;;;5046795;28;20025;-70
2023/01/02 04:57:57;;;;;;;9.25;3.20;;;14.00;85.10;;;;;;5038795;28;20025;-70
2023/01/02 05:00:23;;;;;;;8.13;3.38;;;14.00;85.10;;;;;;5045388;28;20021;-70
2023/01/02 05:02:49;;;;;;;9.60;3.38;;;14.00;85.20;;;;;;5039801;28;20038;-70
2023/01/02 05:05:14;;;;;;;8.38;3.20;;;14.00;85.30;;;;;;5042842;28;20040;-70
2023/01/02 05:07:40;;;;;;;9.18;3.03;;;14.00;85.30;;;;;;5048553;28;20075;-70
2023/01/02 05:10:07;;;;;;;7.75;2.92;;;14.00;85.30;;;;;;5053790;28;20029;-70
2023/01/02 05:12:34;;;;;;;8.98;2.95;;;14.00;85.30;;;;;;5045850;28;20114;-70
2023/01/02 05:14:59;;;;;;;10.38;3.50;;;14.00;85.40;;;;;;5047864;28;20055;-71
2023/01/02 05:17:25;;;;;;;8.43;3.05;;;14.00;85.40;;;;;;5036846;28;20021;-70
2023/01/02 05:19:51;;;;;;;8.27;3.67;;;14.00;85.50;;;;;;5041806;28;20025;-70
2023/01/02 05:25:00;;;;;;;7.57;3.08;;;14.00;85.40;;;;;;5033240;28;20358;-70
2023/01/02 05:27:26;;;;;;;8.25;3.25;;;14.00;85.30;;;;;;5033157;28;20041;-70
2023/01/02 05:29:51;;;;;;;8.95;3.40;;;14.00;85.40;;;;;;5066533;28;20061;-70
2023/01/02 05:32:17;;;;;;;7.90;3.05;;;14.00;85.50;;;;;;5034473;28;20127;-70
2023/01/02 05:34:43;;;;;;;6.72;3.05;;;14.00;85.50;;;;;;5013964;28;20095;-70
2023/01/02 05:37:08;;;;;;;10.50;3.40;;;14.00;85.50;;;;;;5031029;28;20017;-70
2023/01/02 05:39:34;;;;;;;11.65;3.55;;;14.00;85.50;;;;;;5030113;28;20036;-70
2023/01/02 05:41:59;;;;;;;9.23;3.28;;;14.00;85.50;;;;;;5031239;28;20343;-70
2023/01/02 05:44:25;;;;;;;9.63;3.60;;;14.00;85.50;;;;;;5031996;28;20060;-70
2023/01/02 05:46:52;;;;;;;10.18;3.05;;;14.00;85.50;;;;;;5050715;28;20044;-70
2023/01/02 05:49:18;;;;;;;9.10;3.65;;;14.00;86.10;;;;;;5033114;28;20056;-70
2023/01/02 05:51:43;;;;;;;8.52;3.40;;;14.00;85.40;;;;;;5029960;28;20026;-71
2023/01/02 05:54:09;;;;;;;7.47;3.03;;;14.10;85.40;;;;;;5036253;28;20056;-70
2023/01/02 05:56:35;;;;;;;6.57;3.10;;;14.10;85.30;;;;;;5037754;28;20055;-70
2023/01/02 05:59:01;;;;;;;7.93;2.55;;;14.10;85.30;;;;;;5034898;28;20033;-70
2023/01/02 06:01:28;;;;;;;7.97;3.20;;;14.10;85.40;;;;;;5031265;28;20060;-70
2023/01/02 06:03:59;;;;;;;9.48;2.90;;;14.10;85.30;;;;;;5045965;28;20044;-70
2023/01/02 06:06:36;;;;;;;7.07;2.80;;;14.10;85.30;;;;;;5036993;28;20029;-70
2023/01/02 06:09:03;;;;;;;8.57;3.10;;;14.10;85.30;;;;;;5037884;28;20021;-71
2023/01/02 06:11:30;;;;;;;9.27;3.05;;;14.10;85.30;;;;;;5068171;28;20422;-71
2023/01/02 06:13:56;;;;;;;7.43;3.28;;;14.00;85.20;;;;;;5035225;28;20028;-71
2023/01/02 06:16:23;;;;;;;7.50;3.38;;;14.10;85.20;;;;;;5036647;28;20026;-70
2023/01/02 06:18:50;;;;;;;8.85;3.58;;;14.10;85.20;;;;;;5036166;28;20032;-71
2023/01/02 06:21:17;;;;;;;9.25;3.20;;;14.10;85.20;;;;;;5018380;28;20032;-71
2023/01/02 06:23:43;;;;;;;10.25;2.90;;;14.10;85.10;;;;;;5016917;28;20033;-71
2023/01/02 06:26:12;;;;;;;9.00;2.88;;;14.10;85.10;;;;;;5034437;28;20026;-71
2023/01/02 06:28:38;;;;;;;7.95;3.17;;;14.10;85.10;;;;;;5036031;28;20055;-72
2023/01/02 06:31:06;;;;;;;8.50;3.17;;;14.10;85.10;;;;;;5037204;28;20056;-71
2023/01/02 06:33:32;;;;;;;8.32;2.80;;;14.10;85.10;;;;;;5022867;28;20029;-72
2023/01/02 06:36:12;;;;;;;6.35;2.83;;;14.10;85.10;;;;;;5018170;28;20034;-74
2023/01/02 06:38:38;;;;;;;6.47;2.95;;;14.10;85.10;;;;;;5019550;28;20537;-74
2023/01/02 06:41:05;;;;;;;11.43;3.53;;;14.00;85.10;;;;;;5034324;28;20028;-74
2023/01/02 06:43:54;;;;;;;6.60;2.95;;;14.00;85.20;;;;;;5036726;28;20030;-74
2023/01/02 06:46:22;;;;;;;9.57;3.15;;;14.00;85.20;;;;;;5036832;28;20045;-75
2023/01/02 06:48:48;;;;;;;8.00;3.53;;;14.00;85.30;;;;;;5035383;28;20453;-74
2023/01/02 06:51:18;;;;;;;6.93;2.80;;;14.00;85.40;;;;;;5047782;28;20129;-74
2023/01/02 06:53:44;;;;;;;4.88;2.30;;;14.00;85.40;;;;;;5068058;28;20048;-70
2023/01/02 06:56:11;;;;;;;7.07;2.30;;;13.90;85.20;;;;;;5043027;28;20049;-71
2023/01/02 06:58:37;;;;;;;4.22;1.35;;;13.80;85.10;;;;;;5068733;28;20103;-71
2023/01/02 07:01:06;;;;;;;3.20;1.10;;;13.70;84.90;;;;;;5052736;28;20095;-71
2023/01/02 07:03:31;;;;;;;2.88;1.20;;;13.60;84.70;;;;;;5068415;28;20035;-70
2023/01/02 07:06:08;;;;;;;1.45;0.75;;;13.60;84.80;;;;;;5013792;28;20449;-71
2023/01/02 07:08:34;;;;;;;1.70;1.00;;;13.60;84.80;;;;;;5032558;28;20548;-71
2023/01/02 07:11:07;;;;;;;2.20;0.93;;;13.50;84.60;;;;;;5033822;28;20025;-71
2023/01/02 07:13:33;;;;;;;2.53;0.60;;;13.50;84.40;;;;;;5034999;28;20025;-71
2023/01/02 07:16:02;;;;;;;1.70;0.80;;;13.40;84.30;;;;;;5036414;28;20032;-71
2023/01/02 07:18:28;;;;;;;0.85;0.52;;;13.40;84.20;;;;;;5031625;28;20042;-71
2023/01/02 07:20:54;;;;;;;1.77;0.70;;;13.40;84.10;;;;;;5035694;28;20067;-71
2023/01/02 07:23:20;;;;;;;1.15;0.70;;;13.30;84.00;;;;;;5034219;28;20032;-71
2023/01/02 07:25:54;;;;;;;2.60;0.88;;;13.30;83.90;;;;;;5036144;28;20500;-71
2023/01/02 07:28:20;;;;;;;1.00;0.80;;;13.30;83.70;;;;;;5051541;28;20121;-71
2023/01/02 07:30:46;;;;;;;1.02;0.77;;;13.20;83.70;;;;;;5035102;28;20358;-71
2023/01/02 07:33:12;;;;;;;2.40;0.95;;;13.20;83.70;;;;;;5047515;28;20030;-71
2023/01/02 07:35:37;;;;;;;2.25;1.10;;;13.20;83.70;;;;;;5032881;28;20041;-69
2023/01/02 07:38:03;;;;;;;1.42;0.90;;;13.10;83.60;;;;;;5033694;28;20029;-69
2023/01/02 07:40:29;;;;;;;2.88;1.50;;;13.10;83.40;;;;;;5034790;28;20435;-69
2023/01/02 07:42:54;;;;;;;2.05;1.10;;;13.10;83.30;;;;;;5036951;28;20040;-70
2023/01/02 07:45:20;;;;;;;2.30;1.10;;;13.10;83.30;;;;;;5042123;28;20551;-70
2023/01/02 07:47:45;;;;;;;3.33;1.40;;;13.10;83.30;;;;;;5037629;28;20120;-70
2023/01/02 07:50:11;;;;;;;3.85;1.70;;;13.10;83.20;;;;;;5030961;28;20049;-70
2023/01/02 07:52:37;;;;;;;3.28;1.40;;;13.10;83.20;;;;;;5032216;28;20079;-69
2023/01/02 07:55:03;;;;;;;3.70;1.73;;;13.10;83.10;;;;;;5034887;28;20025;-69
2023/01/02 07:57:30;;;;;;;3.25;1.70;;;13.10;83.00;;;;;;5030913;28;20084;-69
2023/01/02 07:59:56;;;;;;;4.55;2.22;;;13.10;83.00;;;;;;5030479;28;20030;-69
2023/01/02 08:02:21;;;;;;;4.95;2.30;;;13.10;83.00;;;;;;5034937;28;20037;-69
2023/01/02 08:04:47;;;;;;;5.30;2.40;;;13.10;83.00;;;;;;5047116;28;20038;-72
2023/01/02 08:07:13;;;;;;;4.60;2.20;;;13.10;83.00;;;;;;5039204;28;20045;-70
2023/01/02 08:09:38;;;;;;;5.55;2.63;;;13.00;82.90;;;;;;5033674;28;20022;-71
2023/01/02 08:12:04;;;;;;;5.60;2.70;;;13.00;82.90;;;;;;5030229;28;20098;-71
2023/01/02 08:14:30;;;;;;;5.93;2.72;;;13.00;82.90;;;;;;5040491;28;20351;-71
2023/01/02 08:16:56;;;;;;;6.85;3.60;;;13.00;82.90;;;;;;5067560;28;20431;-70
2023/01/02 08:19:21;;;;;;;6.13;2.90;;;13.00;82.80;;;;;;5031538;28;20064;-70
2023/01/02 08:21:47;;;;;;;6.50;3.30;;;13.00;82.80;;;;;;5030025;28;20038;-76
2023/01/02 08:24:13;;;;;;;6.85;3.65;;;13.00;82.80;;;;;;5049228;28;20025;-77
2023/01/02 08:26:38;;;;;;;6.97;3.90;;;13.00;82.90;;;;;;5069609;28;20068;-77
2023/01/02 08:29:05;;;;;;;7.45;4.22;;;12.90;82.80;;;;;;5028159;28;20029;-76
2023/01/02 08:31:36;;;;;;;8.35;4.53;;;12.90;82.80;;;;;;5048296;28;20124;-76
2023/01/02 08:34:02;;;;;;;8.77;4.95;;;12.90;82.80;;;;;;5044816;28;20128;-77
2023/01/02 08:36:29;;;;;;;9.43;5.78;;;12.90;82.80;;;;;;5018673;28;20044;-77
2023/01/02 08:38:55;;;;;;;10.20;6.38;;;12.90;82.90;;;;;;5041429;28;20108;-76
2023/01/02 08:41:38;;;;;;;10.70;7.15;;;12.90;82.90;;;;;;5024741;28;20065;-78
2023/01/02 08:44:09;;;;;;;10.65;6.70;;;12.90;82.90;;;;;;5039337;28;20029;-78
2023/01/02 08:46:42;;;;;;;10.02;7.07;;;12.80;83.00;;;;;;5046009;28;20048;-77
2023/01/02 08:49:11;;;;;;;10.88;7.07;;;12.80;83.00;;;;;;5027535;28;20033;-76
2023/01/02 08:51:37;;;;;;;11.00;7.30;;;12.70;83.00;;;;;;5040866;28;20039;-75
2023/01/02 08:54:06;;;;;;;11.32;7.60;;;12.80;83.20;;;;;;5060950;28;20026;-76
2023/01/02 08:56:34;;;;;;;12.15;7.47;;;12.80;83.20;;;;;;5036045;28;20025;-76
2023/01/02 08:59:07;;;;;;;10.48;6.65;;;12.70;83.10;;;;;;5040756;28;20017;-76
2023/01/02 09:01:33;;;;;;;11.60;6.80;;;12.80;83.10;;;;;;5034008;28;20125;-77
2023/01/02 09:04:00;;;;;;;8.90;5.57;;;12.80;83.10;;;;;;5018691;28;20035;-77
2023/01/02 09:06:28;;;;;;;9.25;5.60;;;12.70;83.00;;;;;;5047941;28;20029;-76
2023/01/02 09:08:56;;;;;;;8.48;4.90;;;12.70;83.00;;;;;;5039411;28;20087;-75
2023/01/02 09:11:31;;;;;;;7.63;4.07;;;12.70;83.00;;;;;;5047080;28;20039;-75
2023/01/02 09:13:58;;;;;;;7.38;4.05;;;12.70;82.90;;;;;;5045896;28;20028;-75
2023/01/02 09:16:25;;;;;;;7.25;3.65;;;12.70;82.90;;;;;;5042569;28;20030;-75
2023/01/02 09:18:52;;;;;;;6.45;3.47;;;12.70;82.80;;;;;;5022826;28;20415;-76
2023/01/02 09:21:18;;;;;;;5.88;2.97;;;12.70;82.70;;;;;;5026739;28;20028;-76
2023/01/02 09:23:45;;;;;;;5.82;2.80;;;12.70;82.70;;;;;;5029179;28;20044;-73
2023/01/02 09:26:12;;;;;;;8.68;3.35;;;12.70;82.60;;;;;;5045868;28;20087;-75
2023/01/02 09:28:38;;;;;;;6.15;2.80;;;12.70;82.60;;;;;;5024845;28;20527;-75
2023/01/02 09:31:11;;;;;;;6.53;2.88;;;12.70;82.50;;;;;;5036483;28;20112;-77
2023/01/02 09:33:37;;;;;;;6.00;2.85;;;12.70;82.50;;;;;;5049542;28;20042;-77
2023/01/02 09:36:10;;;;;;;7.25;3.15;;;12.70;82.50;;;;;;5039762;28;20033;-76
2023/01/02 09:38:36;;;;;;;6.68;2.90;;;12.70;82.40;;;;;;5049980;28;20033;-76
2023/01/02 09:41:09;;;;;;;8.10;3.72;;;12.60;82.30;;;;;;5055561;28;20021;-73
2023/01/02 09:43:40;;;;;;;6.30;3.33;;;12.60;82.30;;;;;;5039215;28;20083;-73
2023/01/02 09:46:40;;;;;;;7.68;3.30;;;12.70;82.30;;;;;;5041936;28;20033;-73
2023/01/02 09:49:10;;;;;;;6.72;3.00;;;12.60;82.10;;;;;;5029450;28;20128;-73
2023/01/02 09:51:36;;;;;;;7.68;3.67;;;12.60;82.20;;;;;;5036903;28;20098;-73
2023/01/02 09:54:05;;;;;;;7.03;3.75;;;12.60;82.10;;;;;;5039375;28;20048;-73
2023/01/02 09:56:40;;;;;;;7.13;3.90;;;12.60;82.00;;;;;;5048236;28;20119;-73
2023/01/02 09:59:36;;;;;;;7.85;4.15;;;12.60;82.00;;;;;;5046498;28;20032;-73
2023/01/02 10:02:05;;;;;;;6.95;3.90;;;12.60;81.90;;;;;;5061104;28;20035;-73
2023/01/02 10:04:43;;;;;;;7.32;3.42;;;12.60;81.80;;;;;;5052190;28;20036;-73
2023/01/02 10:07:20;;;;;;;7.60;3.47;;;12.60;81.70;;;;;;5054888;28;20392;-73
2023/01/02 10:09:56;;;;;;;6.50;3.50;;;12.60;81.70;;;;;;5055740;28;20029;-73
2023/01/02 10:12:41;;;;;;;6.50;3.05;;;12.60;81.60;;;;;;5055731;28;20474;-73
2023/01/02 10:15:15;;;;;;;6.53;2.80;;;12.70;81.60;;;;;;5050907;28;20104;-73
2023/01/02 10:17:50;;;;;;;5.60;2.45;;;12.60;81.50;;;;;;5044250;28;20029;-73
2023/01/02 10:20:26;;;;;;;6.97;2.65;;;12.70;81.50;;;;;;5056831;28;20062;-73
2023/01/02 10:23:08;;;;;;;4.72;2.35;;;12.70;81.40;;;;;;5050896;28;20449;-73
2023/01/02 10:25:49;;;;;;;6.93;2.42;;;12.60;81.20;;;;;;5037354;28;20029;-73
2023/01/02 10:28:33;;;;;;;5.93;2.00;;;12.70;81.20;;;;;;5055842;28;20049;-73
2023/01/02 10:31:16;;;;;;;5.80;1.92;;;12.70;81.10;;;;;;5052301;28;20048;-73
2023/01/02 10:34:00;;;;;;;5.10;2.00;;;12.60;81.70;;;;;;5035774;28;20420;-73
2023/01/02 10:36:29;;;;;;;4.72;1.77;;;12.70;81.00;;;;;;5035219;28;20018;-73
2023/01/02 10:39:01;;;;;;;5.00;1.98;;;12.70;80.90;;;;;;5071664;28;20160;-73
2023/01/02 10:41:29;;;;;;;5.35;2.00;;;12.80;80.80;;;;;;5031698;28;20029;-73
2023/01/02 10:44:04;;;;;;;5.50;1.80;;;12.80;80.70;;;;;;5030337;28;20018;-73
2023/01/02 10:46:39;;;;;;;9.00;1.88;;;12.80;80.60;;;;;;5039795;28;20068;-73
2023/01/02 10:49:07;;;;;;;4.32;1.50;;;12.80;80.40;;;;;;5056678;28;20053;-74
2023/01/02 10:51:35;;;;;;;5.45;1.80;;;12.80;80.30;;;;;;5023639;28;20038;-73
2023/01/02 10:54:08;;;;;;;6.72;1.77;;;12.80;80.20;;;;;;5050254;28;20036;-73
2023/01/02 10:56:36;;;;;;;4.45;1.75;;;12.80;80.00;;;;;;5068630;28;20033;-73
2023/01/02 10:59:03;;;;;;;4.90;1.80;;;12.80;80.00;;;;;;5039348;28;20068;-74
2023/01/02 11:01:29;;;;;;;5.97;1.50;;;12.80;80.00;;;;;;5032235;28;20025;-73
2023/01/02 11:04:00;;;;;;;5.13;1.90;;;12.80;80.00;;;;;;5034775;28;20131;-74
2023/01/02 11:06:32;;;;;;;5.05;1.88;;;12.80;80.00;;;;;;5050700;28;20048;-74
2023/01/02 11:09:00;;;;;;;6.97;1.83;;;12.80;80.00;;;;;;5037759;28;20037;-73
2023/01/02 11:11:29;;;;;;;5.65;1.70;;;12.80;80.00;;;;;;5036376;28;20463;-73
2023/01/02 11:14:03;;;;;;;4.90;1.90;;;12.80;80.00;;;;;;5053976;28;20383;-73
2023/01/02 11:16:30;;;;;;;7.68;2.10;;;12.80;80.00;;;;;;5040405;28;20040;-73
2023/01/02 11:18:58;;;;;;;4.88;1.80;;;12.80;80.00;;;;;;5059426;28;20164;-74
2023/01/02 11:21:38;;;;;;;5.78;2.10;;;12.80;79.80;;;;;;5037085;28;20040;-73
2023/01/02 11:24:14;;;;;;;6.85;2.22;;;12.80;79.80;;;;;;5038343;28;20041;-74
2023/01/02 11:26:42;;;;;;;5.68;1.85;;;12.80;79.70;;;;;;5052356;28;20037;-74
2023/01/02 11:29:33;;;;;;;5.55;1.90;;;12.90;79.60;;;;;;5054263;28;20466;-74
2023/01/02 11:32:02;;;;;;;5.32;1.90;;;12.90;79.60;;;;;;5042183;28;20351;-75
2023/01/02 11:34:35;;;;;;;5.32;2.22;;;12.90;79.50;;;;;;5046327;28;20091;-74
2023/01/02 11:37:20;;;;;;;4.47;1.65;;;12.90;79.50;;;;;;5043802;28;20032;-75
2023/01/02 11:40:00;;;;;;;5.15;1.90;;;12.90;79.40;;;;;;5067395;28;20048;-74
2023/01/02 11:45:28;;;;;;;5.85;1.73;;;12.90;79.20;;;;;;5051045;28;20033;-74
2023/01/02 11:47:59;;;;;;;7.07;2.13;;;12.90;79.20;;;;;;5038199;28;20039;-75
2023/01/02 11:50:32;;;;;;;6.70;1.70;;;12.90;79.20;;;;;;5021479;28;20450;-77
2023/01/02 11:53:11;;;;;;;4.63;1.70;;;12.90;79.20;;;;;;5024600;28;20043;-74
2023/01/02 11:55:53;;;;;;;5.28;1.50;;;12.90;79.10;;;;;;5040804;28;20418;-75
2023/01/02 11:58:25;;;;;;;7.05;1.77;;;12.90;79.00;;;;;;5044421;28;20067;-75
2023/01/02 12:00:55;;;;;;;6.43;1.90;;;12.90;79.00;;;;;;5044615;28;20029;-74
2023/01/02 12:03:29;;;;;;;5.97;1.90;;;12.90;78.80;;;;;;5036274;28;20022;-74
2023/01/02 12:06:02;;;;;;;4.32;1.60;;;12.90;78.80;;;;;;5021363;28;20021;-76
2023/01/02 12:08:59;;;;;;;5.20;1.95;;;12.90;78.70;;;;;;5036114;28;20084;-74
2023/01/02 12:11:52;;;;;;;5.32;1.98;;;12.90;78.60;;;;;;5048506;28;20037;-73
2023/01/02 12:14:34;;;;;;;7.20;2.67;;;12.90;78.50;;;;;;5045915;28;20029;-76
2023/01/02 12:17:14;;;;;;;8.35;2.30;;;13.00;78.50;;;;;;5043034;28;20012;-75
2023/01/02 12:19:54;;;;;;;6.18;2.00;;;12.90;78.40;;;;;;5035612;28;20032;-76
2023/01/02 12:22:30;;;;;;;5.63;1.90;;;12.90;78.40;;;;;;5038079;28;20361;-75
2023/01/02 12:25:37;;;;;;;5.90;2.70;;;12.90;78.50;;;;;;5067097;28;20026;-74
2023/01/02 12:28:39;;;;;;;6.07;2.53;;;12.90;78.40;;;;;;5017159;28;20049;-75
2023/01/02 12:31:29;;;;;;;7.18;3.00;;;12.80;78.40;;;;;;5042956;28;20025;-76
2023/01/02 12:33:58;;;;;;;8.53;2.37;;;12.80;78.50;;;;;;5029916;28;20029;-76
2023/01/02 12:36:34;;;;;;;8.45;2.78;;;12.80;78.60;;;;;;5027362;28;20076;-77
2023/01/02 12:39:13;;;;;;;7.50;2.63;;;12.80;78.50;;;;;;5032689;28;20036;-76
2023/01/02 12:41:45;;;;;;;8.80;3.22;;;12.80;78.40;;;;;;5030759;28;20041;-77
2023/01/02 12:44:13;;;;;;;7.72;2.92;;;12.80;78.40;;;;;;5014454;28;20078;-75
2023/01/02 12:46:59;;;;;;;7.72;2.83;;;12.80;78.40;;;;;;5035496;28;20049;-75
2023/01/02 12:49:36;;;;;;;6.75;2.75;;;12.80;78.40;;;;;;5030729;28;20033;-76
2023/01/02 12:52:11;;;;;;;5.90;2.90;;;12.80;78.40;;;;;;5030893;28;20029;-76
2023/01/02 12:54:38;;;;;;;7.15;3.10;;;12.80;78.40;;;;;;5030834;28;20151;-75
2023/01/02 12:57:27;;;;;;;5.82;2.63;;;12.80;78.40;;;;;;5021255;28;20030;-75
2023/01/02 13:00:30;;;;;;;6.22;2.50;;;12.80;78.40;;;;;;5034759;28;20041;-75
2023/01/02 13:03:24;;;;;;;6.30;2.42;;;12.90;78.30;;;;;;5018777;28;20381;-75
2023/01/02 13:06:03;;;;;;;6.90;2.90;;;12.90;78.30;;;;;;5038761;28;20375;-75
2023/01/02 13:08:45;;;;;;;7.05;2.60;;;12.90;78.40;;;;;;5019332;28;20095;-76
2023/01/02 13:11:42;;;;;;;8.57;2.60;;;12.80;78.30;;;;;;5053716;28;20037;-76
2023/01/02 13:14:15;;;;;;;7.78;2.67;;;12.80;78.30;;;;;;5038685;28;20085;-75